Time;durP1;ratioP1;P1;durP2;ratioP2;P2;SDS_P1;SDS_P2;PMS_P1;PMS_P2;Temp;Humidity;BMP_temperature;BMP_pressure;BME280_temperature;BME280_humidity;BME280_pressure;Samples;Min_cycle;Max_cycle;Signal;HPM_P1;HPM_P2
2023/06/29 00:00:23;;;;;;;15.80;6.40;;;;;;;19.25;100.00;101258.81;4956496;28;20051;-71
2023/06/29 00:02:50;;;;;;;12.93;5.47;;;;;;;19.19;100.00;101250.16;4965831;28;20113;-72
2023/06/29 00:05:18;;;;;;;14.60;5.57;;;;;;;19.20;100.00;101256.56;4962461;28;20461;-72
2023/06/29 00:07:45;;;;;;;18.65;6.65;;;;;;;19.21;100.00;101249.72;4953357;28;20051;-72
2023/06/29 00:10:11;;;;;;;14.73;5.93;;;;;;;19.19;100.00;101247.34;4964825;28;20102;-72
2023/06/29 00:12:38;;;;;;;15.38;5.78;;;;;;;19.22;100.00;101251.28;4959323;28;20059;-72
2023/06/29 00:15:05;;;;;;;16.33;6.15;;;;;;;19.19;100.00;101255.00;4949281;28;20051;-71
2023/06/29 00:17:31;;;;;;;13.75;5.63;;;;;;;19.15;100.00;101249.53;4956030;28;20051;-72
2023/06/29 00:20:00;;;;;;;14.13;5.68;;;;;;;19.14;100.00;101247.19;4959963;28;20059;-71
2023/06/29 00:22:27;;;;;;;17.35;6.63;;;;;;;19.10;100.00;101244.50;4963172;28;20619;-71
2023/06/29 00:24:58;;;;;;;14.27;5.82;;;;;;;19.11;100.00;101250.91;4950951;28;20118;-72
2023/06/29 00:27:25;;;;;;;13.77;6.10;;;;;;;19.10;100.00;101243.69;4952325;28;20060;-71
2023/06/29 00:29:52;;;;;;;14.38;6.45;;;;;;;19.08;100.00;101246.22;4945818;28;20055;-72
2023/06/29 00:32:18;;;;;;;18.25;6.25;;;;;;;19.06;100.00;101234.59;4949128;28;20059;-72
2023/06/29 00:34:45;;;;;;;16.00;5.88;;;;;;;19.04;100.00;101237.88;4949828;28;20061;-69
2023/06/29 00:37:11;;;;;;;14.60;5.47;;;;;;;19.01;100.00;101235.22;4960711;28;20179;-71
2023/06/29 00:39:39;;;;;;;15.00;6.03;;;;;;;19.00;100.00;101230.84;4962452;28;20106;-72
2023/06/29 00:42:06;;;;;;;14.80;6.63;;;;;;;19.03;100.00;101230.69;4966334;28;20051;-70
2023/06/29 00:44:32;;;;;;;13.82;5.53;;;;;;;19.01;100.00;101235.22;4953461;28;20075;-68
2023/06/29 00:46:59;;;;;;;12.80;5.45;;;;;;;18.97;100.00;101240.22;4959135;28;20051;-70
2023/06/29 00:49:27;;;;;;;18.25;6.35;;;;;;;18.97;100.00;101229.72;4963145;28;20433;-73
2023/06/29 00:51:54;;;;;;;15.18;5.82;;;;;;;18.93;100.00;101234.72;4957421;28;20685;-70
2023/06/29 00:54:21;;;;;;;14.43;5.75;;;;;;;18.90;100.00;101229.22;4949494;28;20126;-72
2023/06/29 00:56:49;;;;;;;16.67;6.57;;;;;;;18.89;100.00;101222.81;4950325;28;20063;-71
2023/06/29 00:59:16;;;;;;;15.02;5.60;;;;;;;18.91;100.00;101216.72;4959039;28;20102;-69
2023/06/29 01:01:43;;;;;;;13.95;5.72;;;;;;;18.91;100.00;101216.72;4952621;28;20424;-71
2023/06/29 01:04:17;;;;;;;13.38;5.47;;;;;;;18.91;100.00;101222.34;4956912;28;20567;-70
2023/06/29 01:06:56;;;;;;;15.13;6.18;;;;;;;18.89;100.00;101211.53;4958067;28;20051;-71
2023/06/29 01:09:24;;;;;;;14.60;6.38;;;;;;;18.88;100.00;101214.81;4959605;28;20125;-73
2023/06/29 01:11:52;;;;;;;15.68;6.15;;;;;;;18.84;100.00;101211.34;4953083;28;20059;-68
2023/06/29 01:14:20;;;;;;;12.15;5.53;;;;;;;18.84;100.00;101208.53;4965982;28;20133;-72
2023/06/29 01:16:49;;;;;;;13.45;5.85;;;;;;;18.84;100.00;101211.34;4956271;28;20047;-71
2023/06/29 01:19:28;;;;;;;13.10;5.22;;;;;;;18.79;100.00;101209.91;4957349;28;20534;-71
2023/06/29 01:22:03;;;;;;;16.38;5.50;;;;;;;18.76;100.00;101212.88;4970868;28;20057;-70
2023/06/29 01:24:40;;;;;;;16.58;5.88;;;;;;;18.71;100.00;101214.25;4953264;28;20055;-71
2023/06/29 01:27:07;;;;;;;10.55;5.07;;;;;;;18.74;100.00;101221.00;4971806;28;20106;-71
2023/06/29 01:29:35;;;;;;;13.80;6.35;;;;;;;18.71;100.00;101216.25;4960685;28;20106;-70
2023/06/29 01:32:03;;;;;;;18.98;6.60;;;;;;;18.72;100.00;101206.56;4949023;28;20135;-68
2023/06/29 01:34:31;;;;;;;15.75;6.40;;;;;;;18.70;100.00;101209.06;4949870;28;20058;-69
2023/06/29 01:37:06;;;;;;;19.38;6.07;;;;;;;18.71;100.00;101214.25;4952503;28;20065;-71
2023/06/29 01:39:41;;;;;;;20.73;6.38;;;;;;;18.69;100.00;101204.66;4958287;28;20087;-73
2023/06/29 01:42:10;;;;;;;17.00;5.57;;;;;;;18.70;100.00;101203.44;4963531;28;20120;-72
2023/06/29 01:44:36;;;;;;;17.02;6.28;;;;;;;18.69;100.00;101205.47;4964896;28;20047;-70
2023/06/29 01:47:04;;;;;;;14.05;5.95;;;;;;;18.70;100.00;101194.97;4970822;28;20583;-72
2023/06/29 01:49:31;;;;;;;15.82;5.78;;;;;;;18.70;100.00;101201.38;4962702;28;20047;-72
2023/06/29 01:51:57;;;;;;;15.73;5.53;;;;;;;18.71;100.00;101199.38;4952273;28;20078;-72
2023/06/29 01:54:24;;;;;;;17.05;6.03;;;;;;;18.72;100.00;101206.56;4960146;28;20050;-73
2023/06/29 01:56:50;;;;;;;15.65;6.55;;;;;;;18.73;100.00;101211.00;4944931;28;20466;-71
2023/06/29 01:59:17;;;;;;;12.95;5.47;;;;;;;18.72;100.00;101206.56;4958092;28;20083;-71
2023/06/29 02:01:43;;;;;;;17.05;6.28;;;;;;;18.67;100.00;101195.91;4956835;28;20110;-71
2023/06/29 02:04:10;;;;;;;14.45;5.80;;;;;;;18.67;100.00;101193.84;4945792;28;20066;-74
2023/06/29 02:06:37;;;;;;;15.30;6.10;;;;;;;18.65;100.00;101196.38;4952418;28;20051;-73
2023/06/29 02:09:03;;;;;;;15.32;5.75;;;;;;;18.64;100.00;101194.81;4959986;28;20052;-71
2023/06/29 02:11:30;;;;;;;14.63;6.70;;;;;;;18.64;100.00;101183.53;4958375;28;20120;-69
2023/06/29 02:13:56;;;;;;;18.30;6.05;;;;;;;18.60;100.00;101188.50;4961791;28;20051;-73
2023/06/29 02:16:23;;;;;;;17.75;6.72;;;;;;;18.61;100.00;101194.94;4971268;28;20105;-72
2023/06/29 02:18:50;;;;;;;16.42;5.90;;;;;;;18.60;100.00;101187.75;4953534;28;20043;-72
2023/06/29 02:21:16;;;;;;;16.45;6.35;;;;;;;18.58;100.00;101190.22;4971590;28;20145;-71
2023/06/29 02:23:43;;;;;;;16.52;6.60;;;;;;;18.54;100.00;101181.13;4968317;28;20054;-71
2023/06/29 02:26:09;;;;;;;21.85;6.82;;;;;;;18.52;100.00;101184.41;4962170;28;20042;-71
2023/06/29 02:28:36;;;;;;;19.35;6.60;;;;;;;18.51;100.00;101185.66;4958409;28;20059;-73
2023/06/29 02:31:02;;;;;;;20.02;6.32;;;;;;;18.52;100.00;101175.97;4960009;28;20046;-71
2023/06/29 02:33:29;;;;;;;17.27;6.47;;;;;;;18.52;100.00;101189.25;4950672;28;20494;-71
2023/06/29 02:35:56;;;;;;;18.30;7.53;;;;;;;18.50;100.00;101184.06;4967757;28;20094;-73
2023/06/29 02:38:22;;;;;;;13.60;6.88;;;;;;;18.47;100.00;101185.00;4944785;28;20138;-73
2023/06/29 02:40:49;;;;;;;17.30;6.13;;;;;;;18.46;100.00;101171.41;4968425;28;20078;-71
2023/06/29 02:43:15;;;;;;;15.98;6.38;;;;;;;18.46;100.00;101186.25;4966294;28;20055;-69
2023/06/29 02:45:42;;;;;;;15.32;6.63;;;;;;;18.45;100.00;101181.88;4949514;28;20481;-72
2023/06/29 02:48:09;;;;;;;16.70;6.78;;;;;;;18.48;100.00;101182.97;4955138;28;20500;-71
2023/06/29 02:50:35;;;;;;;15.90;6.57;;;;;;;18.49;100.00;101187.34;4953472;28;20510;-72
2023/06/29 02:53:02;;;;;;;16.85;7.00;;;;;;;18.50;100.00;101181.25;4958461;28;20059;-72
2023/06/29 02:55:30;;;;;;;16.95;6.53;;;;;;;18.47;100.00;101182.19;4965455;28;20149;-72
2023/06/29 02:57:56;;;;;;;14.90;6.03;;;;;;;18.48;100.00;101177.34;4968674;28;20464;-72
2023/06/29 03:00:23;;;;;;;14.38;6.15;;;;;;;18.47;100.00;101173.75;4956688;28;20059;-72
2023/06/29 03:02:50;;;;;;;15.75;6.38;;;;;;;18.46;100.00;101174.22;4969380;28;20055;-72
2023/06/29 03:05:17;;;;;;;17.33;6.47;;;;;;;18.45;100.00;101170.59;4952473;28;20056;-72
2023/06/29 03:07:43;;;;;;;16.67;6.15;;;;;;;18.42;100.00;101170.72;4958542;28;20065;-72
2023/06/29 03:10:10;;;;;;;14.82;5.93;;;;;;;18.41;100.00;101169.16;4954723;28;20051;-71
2023/06/29 03:12:36;;;;;;;15.85;6.80;;;;;;;18.41;100.00;101169.16;4954756;28;20117;-70
2023/06/29 03:15:03;;;;;;;31.25;14.50;;;;;;;18.39;100.00;101166.03;4969598;28;20054;-72
2023/06/29 03:17:29;;;;;;;17.15;6.68;;;;;;;18.38;100.00;101167.25;4970463;28;20054;-72
2023/06/29 03:19:56;;;;;;;15.40;7.03;;;;;;;18.40;100.00;101168.38;4953789;28;20075;-72
2023/06/29 03:22:25;;;;;;;16.88;6.32;;;;;;;18.39;100.00;101161.19;4947227;28;20146;-72
2023/06/29 03:24:52;;;;;;;16.83;7.35;;;;;;;18.37;100.00;101158.06;4951056;28;20450;-72
2023/06/29 03:27:19;;;;;;;15.52;6.38;;;;;;;18.36;100.00;101161.34;4943837;28;20055;-70
2023/06/29 03:29:51;;;;;;;14.07;6.43;;;;;;;18.35;100.00;101154.91;4958538;28;20378;-72
2023/06/29 03:32:17;;;;;;;18.65;6.88;;;;;;;18.38;100.00;101161.63;4957377;28;20134;-72
2023/06/29 03:34:44;;;;;;;13.02;5.85;;;;;;;18.38;100.00;101161.63;4958274;28;20138;-71
2023/06/29 03:37:11;;;;;;;21.70;7.43;;;;;;;18.36;100.00;101158.50;4945094;28;20052;-71
2023/06/29 03:39:37;;;;;;;16.27;7.07;;;;;;;18.37;100.00;101154.44;4949790;28;20110;-73
2023/06/29 03:42:04;;;;;;;16.42;6.45;;;;;;;18.39;100.00;101158.34;4958282;28;20624;-71
2023/06/29 03:44:30;;;;;;;18.23;6.45;;;;;;;18.41;100.00;101155.09;4960644;28;20070;-69
2023/06/29 03:46:57;;;;;;;16.27;6.60;;;;;;;18.41;100.00;101158.69;4968104;28;20398;-73
2023/06/29 03:49:24;;;;;;;17.38;6.72;;;;;;;18.42;100.00;101153.84;4955303;28;20058;-73
2023/06/29 03:51:51;;;;;;;16.05;6.43;;;;;;;18.41;100.00;101146.66;4959122;28;20141;-68
2023/06/29 03:54:17;;;;;;;16.73;6.22;;;;;;;18.41;100.00;101152.28;4953880;28;20134;-73
2023/06/29 03:56:44;;;;;;;18.73;6.40;;;;;;;18.41;100.00;101144.63;4958400;28;20130;-72
2023/06/29 03:59:10;;;;;;;14.60;6.18;;;;;;;18.43;100.00;101146.97;4969589;28;20050;-71
2023/06/29 04:01:37;;;;;;;14.07;6.35;;;;;;;18.45;100.00;101144.47;4960283;28;20051;-72
2023/06/29 04:04:04;;;;;;;13.93;6.25;;;;;;;18.46;100.00;101140.44;4968134;28;20051;-73
2023/06/29 04:06:30;;;;;;;17.27;7.05;;;;;;;18.48;100.00;101143.56;4961471;28;20050;-69
2023/06/29 04:08:57;;;;;;;17.35;6.32;;;;;;;18.49;100.00;101142.28;4954282;28;20139;-71
2023/06/29 04:11:23;;;;;;;18.30;7.40;;;;;;;18.50;100.00;101133.38;4946421;28;20137;-68
2023/06/29 04:13:50;;;;;;;18.25;6.53;;;;;;;18.56;100.00;101139.22;4950290;28;20082;-71
2023/06/29 04:16:16;;;;;;;16.27;7.18;;;;;;;18.58;100.00;101128.28;4969527;28;20054;-71
2023/06/29 04:18:43;;;;;;;16.08;6.47;;;;;;;18.59;100.00;101136.25;4963524;28;20059;-69
2023/06/29 04:21:10;;;;;;;15.77;7.32;;;;;;;18.60;100.00;101126.56;4957493;28;20050;-72
2023/06/29 04:23:36;;;;;;;20.40;7.60;;;;;;;18.64;100.00;101126.44;4949121;28;20055;-71
2023/06/29 04:26:03;;;;;;;18.65;6.88;;;;;;;18.65;100.00;101127.97;4949526;28;20090;-70
2023/06/29 04:28:33;;;;;;;16.20;6.80;;;;;;;18.68;100.00;101127.06;4964066;28;20097;-71
2023/06/29 04:31:00;;;;;;;15.10;6.45;;;;;;;18.69;100.00;101125.81;4969239;28;20059;-71
2023/06/29 04:33:27;;;;;;;14.45;6.88;;;;;;;18.72;100.00;101127.69;4961919;28;20457;-71
2023/06/29 04:35:53;;;;;;;16.63;6.95;;;;;;;18.74;100.00;101125.25;4943665;28;20078;-70
2023/06/29 04:38:22;;;;;;;16.75;7.32;;;;;;;18.76;100.00;101122.72;4968919;28;20561;-73
2023/06/29 04:40:49;;;;;;;17.35;7.03;;;;;;;18.80;100.00;101120.56;4949257;28;20091;-70
2023/06/29 04:43:16;;;;;;;14.32;6.90;;;;;;;18.82;100.00;101123.69;4953362;28;20082;-71
2023/06/29 04:45:42;;;;;;;15.88;7.18;;;;;;;18.87;100.00;101123.09;4953272;28;20055;-73
2023/06/29 04:48:10;;;;;;;16.58;7.50;;;;;;;18.91;100.00;101118.09;4949726;28;20055;-70
2023/06/29 04:50:37;;;;;;;17.48;7.85;;;;;;;18.96;100.00;101120.28;4950991;28;20051;-70
2023/06/29 04:53:09;;;;;;;22.42;7.53;;;;;;;19.01;100.00;101122.50;4959230;28;20062;-70
2023/06/29 04:55:39;;;;;;;19.85;7.68;;;;;;;19.06;100.00;101121.88;4960141;28;20494;-67
2023/06/29 04:58:06;;;;;;;18.25;7.70;;;;;;;19.10;100.00;101114.84;4957474;28;20098;-70
2023/06/29 05:00:32;;;;;;;17.25;8.02;;;;;;;19.02;100.00;101118.44;4949717;28;20107;-71
2023/06/29 05:03:00;;;;;;;16.92;7.05;;;;;;;19.02;100.00;101107.16;4949106;28;20051;-73
2023/06/29 05:05:27;;;;;;;18.85;7.82;;;;;;;19.05;100.00;101114.69;4950073;28;20153;-72
2023/06/29 05:07:53;;;;;;;17.45;7.18;;;;;;;19.06;100.00;101111.41;4948272;28;20062;-72
2023/06/29 05:10:20;;;;;;;15.60;6.50;;;;;;;19.15;100.00;101110.63;4957680;28;20650;-72
2023/06/29 05:12:46;;;;;;;18.02;7.53;;;;;;;19.18;100.00;101113.28;4965053;28;20050;-67
2023/06/29 05:15:13;;;;;;;17.15;7.28;;;;;;;19.20;100.00;101112.81;4952942;28;20059;-72
2023/06/29 05:17:40;;;;;;;14.88;6.85;;;;;;;19.05;100.00;101101.41;4968547;28;20524;-73
2023/06/29 05:20:08;;;;;;;15.93;6.80;;;;;;;19.12;100.00;101100.28;4958443;28;20053;-69
2023/06/29 05:22:35;;;;;;;21.88;8.00;;;;;;;19.18;100.00;101101.25;4945320;28;20059;-71
2023/06/29 05:25:02;;;;;;;27.27;9.32;;;;;;;19.21;100.00;101101.09;4948367;28;20079;-71
2023/06/29 05:27:29;;;;;;;15.10;6.97;;;;;;;19.24;100.00;101102.22;4957227;28;20094;-72
2023/06/29 05:29:55;;;;;;;17.60;6.35;;;;;;;19.27;100.00;101099.22;4957197;28;20075;-72
2023/06/29 05:32:22;;;;;;;15.40;6.68;;;;;;;19.31;100.00;101090.63;4944103;28;20055;-72
2023/06/29 05:34:48;;;;;;;15.02;6.63;;;;;;;19.34;100.00;101089.69;4954042;28;20101;-72
2023/06/29 05:37:15;;;;;;;17.95;6.75;;;;;;;19.38;100.00;101091.06;4943806;28;20076;-72
2023/06/29 05:39:41;;;;;;;18.08;6.63;;;;;;;19.34;100.00;101084.81;4948607;28;20059;-70
2023/06/29 05:42:08;;;;;;;17.88;6.47;;;;;;;19.29;100.00;101084.66;4952464;28;20113;-72
2023/06/29 05:44:35;;;;;;;16.90;6.45;;;;;;;19.35;100.00;101085.59;4957073;28;20085;-72
2023/06/29 05:47:01;;;;;;;13.98;5.80;;;;;;;19.41;100.00;101083.75;4948321;28;20067;-72
2023/06/29 05:49:28;;;;;;;16.35;6.55;;;;;;;19.45;100.00;101090.00;4952156;28;20130;-71
2023/06/29 05:51:54;;;;;;;14.65;6.25;;;;;;;19.47;100.00;101090.28;4949187;28;20087;-73
2023/06/29 05:54:21;;;;;;;18.17;6.55;;;;;;;19.50;100.00;101095.03;4960698;28;20146;-72
2023/06/29 05:56:47;;;;;;;16.35;6.20;;;;;;;19.48;100.00;101087.03;4958624;28;20098;-72
2023/06/29 05:59:14;;;;;;;17.88;6.88;;;;;;;19.45;100.00;101090.00;4950757;28;20061;-71
2023/06/29 06:01:40;;;;;;;15.45;6.28;;;;;;;19.58;100.00;101090.66;4952544;28;20138;-71
2023/06/29 06:04:07;;;;;;;18.30;6.55;;;;;;;19.66;100.00;101089.88;4954735;28;20058;-71
2023/06/29 06:06:33;;;;;;;16.17;6.30;;;;;;;19.67;100.00;101090.63;4959889;28;20054;-71
2023/06/29 06:09:00;;;;;;;15.82;6.82;;;;;;;19.64;100.00;101092.38;4958262;28;20059;-71
2023/06/29 06:11:26;;;;;;;22.85;7.65;;;;;;;19.74;100.00;101095.94;4960115;28;20081;-71
2023/06/29 06:13:53;;;;;;;19.30;7.53;;;;;;;19.77;100.00;101095.81;4948545;28;20083;-71
2023/06/29 06:16:20;;;;;;;18.60;7.22;;;;;;;19.73;100.00;101094.41;4952833;28;20102;-72
2023/06/29 06:18:47;;;;;;;18.70;7.05;;;;;;;19.72;100.00;101098.47;4955074;28;20065;-72
2023/06/29 06:21:13;;;;;;;20.88;7.40;;;;;;;19.76;100.00;101099.09;4955891;28;20148;-69
2023/06/29 06:23:40;;;;;;;17.25;7.80;;;;;;;19.85;100.00;101107.56;4954120;28;20055;-71
2023/06/29 06:26:07;;;;;;;21.58;7.80;;;;;;;19.87;100.00;101099.41;4947491;28;20039;-71
2023/06/29 06:28:33;;;;;;;20.58;8.25;;;;;;;19.93;100.00;101100.34;4958225;28;20090;-69
2023/06/29 06:31:00;;;;;;;21.08;8.02;;;;;;;19.83;100.00;101095.94;4946782;28;20090;-71
2023/06/29 06:33:30;;;;;;;24.42;7.07;;;;;;;19.97;100.00;101103.75;4954302;28;20429;-71
2023/06/29 06:35:57;;;;;;;18.67;7.97;;;;;;;19.97;100.00;101094.50;4961342;28;20486;-72
2023/06/29 06:38:24;;;;;;;18.95;7.95;;;;;;;20.05;100.00;101093.72;4956209;28;20055;-71
2023/06/29 06:41:10;;;;;;;19.77;8.10;;;;;;;20.17;100.00;101095.56;4942371;28;20142;-69
2023/06/29 06:43:36;;;;;;;18.23;8.32;;;;;;;20.12;100.00;101095.44;4950788;28;20081;-69
2023/06/29 06:46:03;;;;;;;26.08;8.75;;;;;;;20.23;100.00;101092.91;4956932;28;20215;-69
2023/06/29 06:48:29;;;;;;;17.33;6.68;;;;;;;19.97;100.00;101091.69;4951154;28;20047;-70
2023/06/29 06:50:56;;;;;;;22.67;7.72;;;;;;;20.17;100.00;101101.22;4946730;28;20154;-70
2023/06/29 06:53:22;;;;;;;18.95;8.65;;;;;;;20.31;100.00;101092.09;4950626;28;20059;-69
2023/06/29 06:55:49;;;;;;;23.25;7.43;;;;;;;20.25;100.00;101096.81;4959618;28;20198;-69
2023/06/29 06:58:15;;;;;;;19.60;6.50;;;;;;;20.29;100.00;101094.63;4967548;28;20105;-71
2023/06/29 07:00:42;;;;;;;15.48;5.22;;;;;;;20.29;100.00;101094.63;4957530;28;20182;-73
2023/06/29 07:03:09;;;;;;;18.88;7.28;;;;;;;20.28;100.00;101097.94;4953988;28;20046;-70
2023/06/29 07:05:36;;;;;;;19.13;7.95;;;;;;;20.53;100.00;101100.34;4951565;28;20114;-72
2023/06/29 07:08:03;;;;;;;24.27;9.15;;;;;;;20.57;100.00;101090.44;4960513;28;20437;-70
2023/06/29 07:10:30;;;;;;;23.88;7.30;;;;;;;20.64;100.00;101092.91;4954209;28;20709;-72
2023/06/29 07:12:56;;;;;;;26.60;8.77;;;;;;;20.73;100.00;101092.09;4950674;28;20051;-71
2023/06/29 07:15:23;;;;;;;22.58;9.25;;;;;;;20.69;100.00;101094.31;4964305;28;20085;-73
2023/06/29 07:17:50;;;;;;;18.05;7.60;;;;;;;20.66;100.00;101083.97;4960854;28;20059;-70
2023/06/29 07:20:16;;;;;;;17.52;5.75;;;;;;;20.69;100.00;101085.84;4957682;28;20051;-69
2023/06/29 07:22:46;;;;;;;18.73;7.80;;;;;;;20.82;100.00;101087.16;4959715;28;20082;-69
2023/06/29 07:25:15;;;;;;;21.60;8.50;;;;;;;20.83;100.00;101088.72;4878908;29;20084;-71
2023/06/29 07:27:42;;;;;;;19.85;9.05;;;;;;;20.82;100.00;101077.94;4888004;29;20443;-70
2023/06/29 07:30:08;;;;;;;20.25;8.75;;;;;;;20.73;100.00;101070.28;4890428;29;20216;-70
2023/06/29 07:32:35;;;;;;;27.25;10.00;;;;;;;21.02;100.00;101081.75;4888119;29;20108;-70
2023/06/29 07:35:02;;;;;;;23.05;9.18;;;;;;;20.79;100.00;101082.47;4889220;29;20050;-70
2023/06/29 07:37:28;;;;;;;25.00;9.30;;;;;;;20.97;100.00;101079.59;4887778;29;20057;-70
2023/06/29 07:39:55;;;;;;;21.65;9.52;;;;;;;21.01;100.00;101082.22;4888656;29;20079;-73
2023/06/29 07:42:21;;;;;;;23.65;10.90;;;;;;;20.92;100.00;101080.19;4891819;29;20132;-70
2023/06/29 07:45:05;;;;;;;25.30;10.40;;;;;;;20.98;100.00;101083.97;4947712;28;20110;-70
2023/06/29 09:14:59;;;;;;;25.30;11.13;;;;;;;21.79;100.00;101060.72;4968146;28;20187;-71
2023/06/29 09:17:28;;;;;;;22.00;10.48;;;;;;;21.78;100.00;101064.78;4947381;28;20063;-71
2023/06/29 09:19:55;;;;;;;25.75;11.10;;;;;;;21.71;100.00;101059.50;4952332;28;20059;-75
2023/06/29 09:22:23;;;;;;;29.08;12.70;;;;;;;21.87;100.00;101049.75;4943887;28;20062;-75
2023/06/29 09:24:55;;;;;;;30.42;12.95;;;;;;;21.89;100.00;101056.53;4954580;28;20162;-72
2023/06/29 09:27:36;;;;;;;26.10;11.77;;;;;;;21.85;100.00;101057.97;4948865;28;20530;-71
2023/06/29 09:30:04;;;;;;;30.52;12.77;;;;;;;21.89;100.00;101052.91;4944174;28;20462;-68
2023/06/29 09:32:36;;;;;;;28.35;12.02;;;;;;;21.70;100.00;101049.47;4953279;28;20063;-70
2023/06/29 09:35:08;;;;;;;25.60;10.38;;;;;;;21.72;100.00;101055.44;4963213;28;20093;-70
2023/06/29 09:37:35;;;;;;;25.90;12.07;;;;;;;21.71;100.00;101053.84;4943380;28;20203;-72
2023/06/29 09:40:09;;;;;;;24.63;11.40;;;;;;;21.66;100.00;101048.09;4950171;28;20059;-71
2023/06/29 09:42:37;;;;;;;25.17;11.88;;;;;;;21.56;100.00;101047.38;4946075;28;20044;-70
2023/06/29 09:45:10;;;;;;;25.23;12.82;;;;;;;21.65;100.00;101050.16;4940488;28;20099;-71
2023/06/29 09:47:39;;;;;;;27.92;10.75;;;;;;;21.50;100.00;101049.31;4953361;28;20051;-72
2023/06/29 09:50:19;;;;;;;24.15;10.35;;;;;;;21.45;100.00;101047.19;4950616;28;20617;-72
2023/06/29 09:52:48;;;;;;;26.83;11.82;;;;;;;21.57;100.00;101042.50;4957954;28;20134;-70
2023/06/29 09:55:16;;;;;;;30.40;12.80;;;;;;;21.54;100.00;101044.25;4957104;28;20501;-68
2023/06/29 09:57:44;;;;;;;30.15;12.40;;;;;;;21.48;100.00;101043.38;4944557;28;20502;-68
2023/06/29 10:00:13;;;;;;;28.08;12.18;;;;;;;21.42;100.00;101053.00;4945909;28;20761;-70
2023/06/29 10:02:42;;;;;;;23.10;11.73;;;;;;;21.48;100.00;101046.22;4941621;28;20085;-70
2023/06/29 10:05:09;;;;;;;27.30;11.65;;;;;;;21.53;100.00;101041.91;4948491;28;20043;-72
2023/06/29 10:07:37;;;;;;;21.85;8.32;;;;;;;21.40;100.00;101047.81;4942518;28;20047;-71
2023/06/29 10:10:05;;;;;;;22.38;9.73;;;;;;;21.47;100.00;101033.31;4950167;28;20469;-71
2023/06/29 10:12:33;;;;;;;21.02;8.88;;;;;;;21.46;100.00;101043.06;4940305;28;20047;-70
2023/06/29 10:15:08;;;;;;;21.55;9.13;;;;;;;21.37;100.00;101039.53;4947343;28;20050;-71
2023/06/29 10:17:51;;;;;;;23.80;10.93;;;;;;;21.43;100.00;101038.38;4951530;28;20083;-71
2023/06/29 10:20:20;;;;;;;25.92;11.43;;;;;;;21.48;100.00;101039.75;4948111;28;20086;-69
2023/06/29 10:22:48;;;;;;;26.70;11.10;;;;;;;21.52;100.00;101035.47;4956127;28;20094;-70
2023/06/29 10:25:20;;;;;;;26.13;12.18;;;;;;;21.52;100.00;101032.66;4952181;28;20078;-72
2023/06/29 10:27:49;;;;;;;27.52;12.50;;;;;;;21.65;100.00;101036.00;4949565;28;20110;-72
2023/06/29 10:30:21;;;;;;;26.10;11.90;;;;;;;21.85;100.00;101041.00;4948358;28;20142;-71
2023/06/29 10:32:50;;;;;;;25.40;10.10;;;;;;;21.94;100.00;101038.06;4955302;28;20055;-69
2023/06/29 10:35:17;;;;;;;24.15;10.35;;;;;;;22.02;100.00;101040.03;4960040;28;20094;-71
2023/06/29 10:37:49;;;;;;;21.75;11.13;;;;;;;22.13;100.00;101039.41;4939737;28;20085;-71
2023/06/29 10:40:27;;;;;;;24.27;10.95;;;;;;;22.17;100.00;101040.00;4951134;28;20086;-72
2023/06/29 10:42:54;;;;;;;28.35;11.02;;;;;;;22.23;100.00;101031.59;4949746;28;20055;-73
2023/06/29 10:45:21;;;;;;;24.70;10.95;;;;;;;22.36;100.00;101035.72;4958963;28;20051;-69
2023/06/29 10:47:57;;;;;;;24.33;10.88;;;;;;;22.33;100.00;101033.84;4955176;28;20051;-74
2023/06/29 10:50:30;;;;;;;25.40;12.15;;;;;;;22.61;100.00;101028.63;4941864;28;20418;-71
2023/06/29 10:53:01;;;;;;;19.23;8.00;;;;;;;22.62;100.00;101030.16;4947617;28;20126;-72
2023/06/29 10:55:41;;;;;;;27.73;12.82;;;;;;;22.97;100.00;101026.06;4951645;28;20137;-71
2023/06/29 10:58:24;;;;;;;25.40;11.95;;;;;;;23.15;100.00;101022.16;4941037;28;20501;-72
2023/06/29 11:00:52;;;;;;;27.10;12.07;;;;;;;23.42;100.00;101010.34;4939480;28;20130;-74
2023/06/29 11:03:20;;;;;;;25.40;11.52;;;;;;;23.54;100.00;101018.47;4941804;28;20113;-75
2023/06/29 11:05:51;;;;;;;27.10;12.88;;;;;;;23.65;100.00;101024.28;4943210;28;20047;-71
2023/06/29 11:08:21;;;;;;;28.95;12.80;;;;;;;23.65;100.00;101009.31;4941564;28;20058;-73
2023/06/29 11:10:48;;;;;;;24.10;11.68;;;;;;;23.79;100.00;101016.91;4942739;28;20061;-72
2023/06/29 11:13:18;;;;;;;27.83;13.43;;;;;;;23.96;100.00;101012.97;4944634;28;20142;-71
2023/06/29 11:15:52;;;;;;;27.65;14.57;;;;;;;24.13;100.00;101008.19;4944672;28;20580;-72
2023/06/29 11:18:19;;;;;;;29.88;14.85;;;;;;;24.24;100.00;101005.47;4954667;28;20078;-71
2023/06/29 11:20:45;;;;;;;29.13;14.60;;;;;;;24.69;100.00;101000.84;4943264;28;20243;-69
2023/06/29 11:23:12;;;;;;;21.77;7.60;;;;;;;24.37;100.00;101022.09;4943071;28;20055;-68
2023/06/29 11:25:39;;;;;;;22.77;9.60;;;;;;;24.34;100.00;101008.91;4944165;28;20074;-70
2023/06/29 11:28:05;;;;;;;32.80;16.35;;;;;;;24.54;100.00;100986.06;4937504;28;20063;-72
2023/06/29 11:30:32;;;;;;;31.42;12.75;;;;;;;24.21;100.00;100997.16;4947585;28;20114;-70
2023/06/29 11:33:01;;;;;;;32.55;15.43;;;;;;;24.39;100.00;100989.06;4945908;28;20055;-72
2023/06/29 11:35:29;;;;;;;31.80;15.30;;;;;;;24.15;100.00;100988.59;4954598;28;20051;-72
2023/06/29 11:38:00;;;;;;;27.08;14.25;;;;;;;24.59;100.00;100988.13;4943826;28;20644;-73
2023/06/29 11:40:28;;;;;;;27.20;13.38;;;;;;;24.36;100.00;100981.53;4954343;28;20054;-70
2023/06/29 11:42:54;;;;;;;28.65;14.63;;;;;;;24.47;100.00;100975.16;4952863;28;20083;-69
2023/06/29 11:45:22;;;;;;;23.55;12.20;;;;;;;24.54;100.00;100983.22;4944430;28;20585;-69
2023/06/29 11:47:55;;;;;;;27.17;13.57;;;;;;;24.45;100.00;100983.41;4937598;28;20093;-68
2023/06/29 11:50:23;;;;;;;23.30;13.38;;;;;;;24.42;100.00;100976.69;4942265;28;20585;-71
2023/06/29 11:52:51;;;;;;;24.05;12.15;;;;;;;24.29;100.00;100982.00;4956872;28;20050;-71
2023/06/29 11:55:17;;;;;;;26.52;12.95;;;;;;;24.07;100.00;100978.22;4954030;28;20059;-73
2023/06/29 11:57:51;;;;;;;25.85;13.32;;;;;;;23.83;100.00;100989.13;4949907;28;20054;-71
2023/06/29 12:00:17;;;;;;;25.88;12.38;;;;;;;23.64;100.00;100976.53;4940805;28;20168;-73
2023/06/29 12:02:44;;;;;;;26.65;13.55;;;;;;;23.58;100.00;100976.47;4939234;28;20055;-71
2023/06/29 12:05:11;;;;;;;26.52;13.27;;;;;;;23.35;100.00;100977.50;4955939;28;20061;-72
2023/06/29 12:07:46;;;;;;;25.65;13.52;;;;;;;23.27;100.00;100986.97;4943441;28;20139;-73
2023/06/29 12:10:18;;;;;;;28.63;15.05;;;;;;;23.29;100.00;100971.00;4937601;28;20059;-72
2023/06/29 12:12:48;;;;;;;25.33;13.60;;;;;;;23.01;100.00;100977.63;4944208;28;20107;-74
2023/06/29 12:15:20;;;;;;;27.42;13.48;;;;;;;22.89;100.00;100971.03;4960418;28;20149;-72
2023/06/29 12:17:48;;;;;;;34.78;16.23;;;;;;;22.86;100.00;100976.91;4955132;28;20545;-74
2023/06/29 12:20:19;;;;;;;27.30;13.75;;;;;;;22.73;100.00;100973.63;4940006;28;20059;-71
2023/06/29 12:22:48;;;;;;;28.55;14.00;;;;;;;22.50;100.00;100961.22;4944484;28;20105;-70
2023/06/29 12:25:16;;;;;;;24.50;11.35;;;;;;;22.39;100.00;100971.63;4950865;28;20062;-74
2023/06/29 12:27:45;;;;;;;27.92;12.30;;;;;;;22.31;100.00;100970.47;4947231;28;20050;-72
2023/06/29 12:30:17;;;;;;;27.48;11.52;;;;;;;22.24;100.00;100974.47;4948071;28;20082;-73
2023/06/29 12:32:47;;;;;;;25.65;10.57;;;;;;;22.21;100.00;100969.81;4949636;28;20051;-72
2023/06/29 12:35:16;;;;;;;30.73;12.55;;;;;;;22.23;100.00;100974.94;4938716;28;20059;-74
2023/06/29 12:37:43;;;;;;;21.13;8.35;;;;;;;22.25;100.00;100970.38;4944467;28;20103;-75